createdAt,value
2018-09-26T00:01:22.964Z,103026.58
2018-09-26T00:03:48.924Z,103033.18
2018-09-26T00:06:14.867Z,103025.73
2018-09-26T00:08:40.817Z,103029.81
2018-09-26T00:11:06.784Z,103030.66
2018-09-26T00:13:32.724Z,103036.30
2018-09-26T00:15:58.820Z,103036.78
2018-09-26T00:18:24.768Z,103033.18
2018-09-26T00:20:50.729Z,103033.85
2018-09-26T00:23:16.674Z,103036.58
2018-09-26T00:25:42.644Z,103040.53
2018-09-26T00:28:08.595Z,103030.92
2018-09-26T00:30:34.539Z,103036.13
2018-09-26T00:33:00.492Z,103030.08
2018-09-26T00:35:26.435Z,103036.13
2018-09-26T00:37:52.400Z,103042.26
2018-09-26T00:40:18.379Z,103048.75
2018-09-26T00:42:44.323Z,103044.78
2018-09-26T00:45:10.373Z,103050.66
2018-09-26T00:47:36.310Z,103050.73
2018-09-26T00:50:02.267Z,103048.09
2018-09-26T00:52:28.277Z,103033.94
2018-09-26T00:54:54.247Z,103036.97
2018-09-26T00:57:20.199Z,103028.84
2018-09-26T00:59:46.147Z,103031.84
2018-09-26T01:02:12.092Z,103022.23
2018-09-26T01:04:38.052Z,103019.59
2018-09-26T01:07:04.000Z,103010.34
2018-09-26T01:09:29.990Z,103009.98
2018-09-26T01:11:55.908Z,103009.98
2018-09-26T01:14:21.854Z,103006.38
2018-09-26T01:16:47.820Z,103000.34
2018-09-26T01:19:13.800Z,102997.70
2018-09-26T01:21:39.740Z,102991.09
2018-09-26T01:24:05.708Z,102984.97
2018-09-26T01:26:31.662Z,102981.48
2018-09-26T01:28:57.690Z,102976.56
2018-09-26T01:31:23.643Z,102974.31
2018-09-26T01:33:49.613Z,102973.00
2018-09-26T01:36:15.560Z,102975.16
2018-09-26T01:38:41.512Z,102965.99
2018-09-26T01:41:07.460Z,102963.83
2018-09-26T01:43:33.420Z,102968.75
2018-09-26T01:45:59.356Z,102957.31
2018-09-26T01:48:25.335Z,102955.14
2018-09-26T01:50:51.334Z,102946.74
2018-09-26T01:53:17.280Z,102955.54
2018-09-26T01:55:43.295Z,102949.78
2018-09-26T01:58:09.235Z,102949.50
2018-09-26T02:00:35.208Z,102955.14
2018-09-26T02:03:01.162Z,102955.63
2018-09-26T02:05:27.125Z,102958.27
2018-09-26T02:07:53.093Z,102971.95
2018-09-26T02:10:19.055Z,102973.64
2018-09-26T02:12:45.009Z,102975.91
2018-09-26T02:15:10.993Z,102973.75
2018-09-26T02:17:36.942Z,102979.77
2018-09-26T02:20:02.890Z,102983.28
2018-09-26T02:22:28.843Z,102993.56
2018-09-26T02:24:54.885Z,102986.96
2018-09-26T02:27:20.849Z,102976.39
2018-09-26T02:29:46.829Z,102975.52
2018-09-26T02:32:12.804Z,102977.31
2018-09-26T02:34:38.748Z,102961.19
2018-09-26T02:37:04.717Z,102954.10
2018-09-26T02:39:30.672Z,102961.19
2018-09-26T02:41:56.640Z,102958.54
2018-09-26T02:44:22.583Z,102954.66
2018-09-26T02:46:48.640Z,102950.70
2018-09-26T02:49:14.587Z,102955.53
2018-09-26T02:51:40.523Z,102959.50
2018-09-26T02:54:06.617Z,102957.30
2018-09-26T02:56:32.562Z,102954.22
2018-09-26T02:58:58.535Z,102948.94
2018-09-26T03:01:24.522Z,102942.97
2018-09-26T03:03:50.476Z,102948.17
2018-09-26T03:06:16.416Z,102942.41
2018-09-26T03:08:42.564Z,102933.92
2018-09-26T03:11:08.621Z,102930.52
2018-09-26T03:13:34.571Z,102927.41
2018-09-26T03:16:00.525Z,102930.16
2018-09-26T03:18:26.470Z,102945.61
2018-09-26T03:20:52.473Z,102958.81
2018-09-26T03:23:18.427Z,102948.64
2018-09-26T03:25:44.491Z,102947.89
2018-09-26T03:28:10.435Z,102939.13
2018-09-26T03:30:36.399Z,102938.64
2018-09-26T03:33:02.339Z,102939.96
2018-09-26T03:35:28.292Z,102934.28
2018-09-26T03:37:54.247Z,102929.48
2018-09-26T03:40:20.202Z,102934.28
2018-09-26T03:42:46.168Z,102940.05
2018-09-26T03:45:12.116Z,102948.36
2018-09-26T03:47:38.061Z,102967.70
2018-09-26T03:50:04.097Z,102963.73
2018-09-26T03:52:30.046Z,102955.81
2018-09-26T03:54:55.980Z,102945.61
2018-09-26T03:57:21.937Z,102942.60
2018-09-26T03:59:47.876Z,102939.20
2018-09-26T04:02:13.816Z,102935.23
2018-09-26T04:04:39.769Z,102932.97
2018-09-26T04:07:05.794Z,102935.16
2018-09-26T04:09:31.827Z,102932.59
2018-09-26T04:11:57.784Z,102938.09
2018-09-26T04:14:23.726Z,102931.64
2018-09-26T04:16:49.673Z,102932.97
2018-09-26T04:19:15.683Z,102934.39
2018-09-26T04:21:41.581Z,102928.72
2018-09-26T04:24:07.543Z,102928.72
2018-09-26T04:26:33.609Z,102930.91
2018-09-26T04:28:59.472Z,102930.91
2018-09-26T04:31:25.483Z,102928.55
2018-09-26T04:33:51.576Z,102926.76
2018-09-26T04:36:17.623Z,102940.05
2018-09-26T04:38:43.680Z,102946.28
2018-09-26T04:41:09.535Z,102940.80
2018-09-26T04:43:35.520Z,102931.48
2018-09-26T04:46:01.472Z,102945.61
2018-09-26T04:48:27.424Z,102945.80
2018-09-26T04:50:53.460Z,102943.45
2018-09-26T04:53:19.357Z,102942.20
2018-09-26T04:55:45.304Z,102947.97
2018-09-26T04:58:11.530Z,102946.17
2018-09-26T05:00:37.647Z,102948.92
2018-09-26T05:03:03.592Z,102949.00
2018-09-26T05:05:29.564Z,102955.53
2018-09-26T05:07:55.599Z,102947.20
2018-09-26T05:10:21.543Z,102938.84
2018-09-26T05:12:47.492Z,102940.61
2018-09-26T05:15:13.504Z,102948.92
2018-09-26T05:17:39.451Z,102949.77
2018-09-26T05:20:05.406Z,102948.08
2018-09-26T05:22:31.367Z,102945.05
2018-09-26T05:24:57.314Z,102938.44
2018-09-26T05:27:23.328Z,102933.92
2018-09-26T05:29:49.320Z,102930.04
2018-09-26T05:32:15.339Z,102934.11
2018-09-26T05:34:41.288Z,102933.16
2018-09-26T05:37:07.243Z,102934.00
2018-09-26T05:39:33.270Z,102933.63
2018-09-26T05:41:59.220Z,102934.11
2018-09-26T05:44:25.193Z,102937.67
2018-09-26T05:46:51.159Z,102944.28
2018-09-26T05:49:17.101Z,102944.67
2018-09-26T05:51:43.055Z,102944.67
2018-09-26T05:54:08.996Z,102948.24
2018-09-26T05:56:34.935Z,102936.84
2018-09-26T05:59:00.951Z,102938.23
2018-09-26T06:01:26.888Z,102932.39
2018-09-26T06:03:52.876Z,102928.44
2018-09-26T06:06:18.819Z,102926.75
2018-09-26T06:08:44.799Z,102937.31
2018-09-26T06:11:10.840Z,102937.67
2018-09-26T06:13:36.806Z,102927.80
2018-09-26T06:16:02.765Z,102939.84
2018-09-26T06:18:28.713Z,102936.36
2018-09-26T06:20:54.663Z,102938.23
2018-09-26T06:23:20.633Z,102946.56
2018-09-26T06:25:46.571Z,102940.23
2018-09-26T06:28:12.526Z,102941.16
2018-09-26T06:30:38.483Z,102943.99
2018-09-26T06:33:04.436Z,102951.00
2018-09-26T06:35:30.408Z,102940.88
2018-09-26T06:37:56.425Z,102938.63
2018-09-26T06:40:22.462Z,102940.43
2018-09-26T06:42:48.347Z,102939.55
2018-09-26T06:45:14.324Z,102939.00
2018-09-26T06:47:40.276Z,102940.80
2018-09-26T06:50:06.296Z,102936.91
2018-09-26T06:52:32.259Z,102935.44
2018-09-26T06:54:58.199Z,102932.31
2018-09-26T06:57:24.182Z,102949.40
2018-09-26T06:59:50.143Z,102941.00
2018-09-26T07:02:16.098Z,102938.84
2018-09-26T07:04:42.039Z,102943.72
2018-09-26T07:07:07.981Z,102942.03
2018-09-26T07:09:33.933Z,102942.88
2018-09-26T07:11:59.899Z,102933.55
2018-09-26T07:14:25.831Z,102938.44
2018-09-26T07:16:51.784Z,102932.23
2018-09-26T07:19:17.727Z,102927.87
2018-09-26T07:21:43.674Z,102928.83
2018-09-26T07:24:09.631Z,102924.39
2018-09-26T07:26:35.619Z,102927.11
2018-09-26T07:29:01.596Z,102936.28
2018-09-26T07:31:27.691Z,102939.39
2018-09-26T07:33:53.589Z,102936.75
2018-09-26T07:36:19.543Z,102924.47
2018-09-26T07:38:45.484Z,102920.43
2018-09-26T07:41:11.701Z,102920.16
2018-09-26T07:43:37.779Z,102919.76
2018-09-26T07:46:03.811Z,102924.59
2018-09-26T07:48:30.461Z,102929.40
2018-09-26T07:50:56.419Z,102938.92
2018-09-26T07:53:22.372Z,102943.25
2018-09-26T07:55:48.374Z,102938.84
2018-09-26T07:58:14.374Z,102933.55
2018-09-26T08:00:40.332Z,102935.80
2018-09-26T08:03:06.275Z,102934.95
2018-09-26T08:05:32.267Z,102935.80
2018-09-26T08:07:58.204Z,102941.84
2018-09-26T08:10:24.165Z,102948.92
2018-09-26T08:12:50.111Z,102944.48
2018-09-26T08:15:16.072Z,102943.16
2018-09-26T08:17:42.087Z,102955.89
2018-09-26T08:20:08.030Z,102958.64
2018-09-26T08:22:33.988Z,102951.56
2018-09-26T08:24:59.932Z,102946.76
2018-09-26T08:27:25.888Z,102951.09
2018-09-26T08:29:51.898Z,102951.09
2018-09-26T08:32:17.787Z,102951.56
2018-09-26T08:34:43.731Z,102952.97
2018-09-26T08:37:09.728Z,102952.88
2018-09-26T08:39:35.797Z,102946.84
2018-09-26T08:42:01.744Z,102946.84
2018-09-26T08:44:27.691Z,102940.61
2018-09-26T08:46:53.643Z,102927.40
2018-09-26T08:49:19.643Z,102930.04
2018-09-26T08:51:45.613Z,102925.99
2018-09-26T08:54:11.571Z,102929.28
2018-09-26T08:56:37.532Z,102932.31
2018-09-26T08:59:03.491Z,102931.36
2018-09-26T09:01:29.433Z,102929.67
2018-09-26T09:03:55.408Z,102929.59
2018-09-26T09:06:21.506Z,102929.20
2018-09-26T09:08:47.373Z,102933.63
2018-09-26T09:11:13.330Z,102923.55
2018-09-26T09:13:39.279Z,102933.16
2018-09-26T09:16:05.308Z,102926.95
2018-09-26T09:18:31.288Z,102921.75
2018-09-26T09:20:57.271Z,102924.67
2018-09-26T09:23:23.208Z,102922.99
2018-09-26T09:25:49.176Z,102922.12
2018-09-26T09:28:15.121Z,102925.63
2018-09-26T09:30:41.177Z,102920.72
2018-09-26T09:33:07.132Z,102918.08
2018-09-26T09:35:33.073Z,102918.08
2018-09-26T09:37:59.379Z,102919.31
2018-09-26T09:40:25.332Z,102913.63
2018-09-26T09:42:51.279Z,102914.39
2018-09-26T09:45:17.231Z,102899.95
2018-09-26T09:47:43.180Z,102903.91
2018-09-26T09:50:09.164Z,102908.34
2018-09-26T09:52:35.083Z,102912.59
2018-09-26T09:55:01.152Z,102916.47
2018-09-26T09:57:27.118Z,102921.76
2018-09-26T09:59:53.084Z,102915.04
2018-09-26T10:02:19.133Z,102919.96
2018-09-26T10:04:45.003Z,102921.64
2018-09-26T10:07:10.943Z,102915.04
2018-09-26T10:09:36.896Z,102912.39
2018-09-26T10:12:02.852Z,102915.16
2018-09-26T10:14:29.214Z,102915.63
2018-09-26T10:16:55.083Z,102910.71
2018-09-26T10:19:21.143Z,102913.92
2018-09-26T10:21:47.092Z,102909.39
2018-09-26T10:24:13.043Z,102903.75
2018-09-26T10:26:39.129Z,102902.51
2018-09-26T10:29:05.091Z,102910.71
2018-09-26T10:31:31.043Z,102909.39
2018-09-26T10:33:57.013Z,102921.64
2018-09-26T10:36:22.964Z,102909.39
2018-09-26T10:38:48.936Z,102904.87
2018-09-26T10:41:14.899Z,102896.55
2018-09-26T10:43:40.857Z,102908.27
2018-09-26T10:46:06.823Z,102906.08
2018-09-26T10:48:32.773Z,102904.39
2018-09-26T10:50:58.740Z,102902.59
2018-09-26T10:53:24.680Z,102904.39
2018-09-26T10:55:50.675Z,102906.19
2018-09-26T10:58:16.617Z,102902.23
2018-09-26T11:00:42.830Z,102907.52
2018-09-26T11:03:08.768Z,102901.75
2018-09-26T11:05:34.816Z,102906.19
2018-09-26T11:08:00.761Z,102899.59
2018-09-26T11:10:26.787Z,102894.39
2018-09-26T11:12:52.681Z,102900.34
2018-09-26T11:15:18.699Z,102894.50
2018-09-26T11:17:44.581Z,102885.42
2018-09-26T11:20:10.533Z,102877.50
2018-09-26T11:22:36.500Z,102880.06
2018-09-26T11:25:02.467Z,102873.94
2018-09-26T11:27:28.420Z,102867.77
2018-09-26T11:29:54.377Z,102871.29
2018-09-26T11:32:20.471Z,102876.85
2018-09-26T11:34:46.370Z,102867.61
2018-09-26T11:37:12.388Z,102868.45
2018-09-26T11:39:38.326Z,102868.45
2018-09-26T11:42:04.266Z,102858.36
2018-09-26T11:44:30.226Z,102857.88
2018-09-26T11:46:56.184Z,102847.80
2018-09-26T11:49:22.132Z,102849.95
2018-09-26T11:51:48.080Z,102848.27
2018-09-26T11:54:14.071Z,102842.52
2018-09-26T11:56:40.101Z,102837.59
2018-09-26T11:59:06.054Z,102832.79
2018-09-26T12:01:32.010Z,102830.98
2018-09-26T12:03:57.952Z,102830.63
2018-09-26T12:06:24.016Z,102830.63
2018-09-26T12:08:49.877Z,102830.98
2018-09-26T12:11:15.873Z,102829.02
2018-09-26T12:13:41.909Z,102825.23
2018-09-26T12:16:07.969Z,102825.23
2018-09-26T12:18:33.919Z,102822.22
2018-09-26T12:20:59.930Z,102812.98
2018-09-26T12:23:25.979Z,102811.93
2018-09-26T12:25:51.944Z,102804.84
2018-09-26T12:28:18.011Z,102802.33
2018-09-26T12:30:43.928Z,102804.84
2018-09-26T12:33:09.879Z,102796.00
2018-09-26T12:35:35.946Z,102793.44
2018-09-26T12:38:01.900Z,102790.05
2018-09-26T12:40:27.875Z,102789.95
2018-09-26T12:42:53.850Z,102787.80
2018-09-26T12:45:19.782Z,102787.68
2018-09-26T12:47:45.727Z,102789.00
2018-09-26T12:50:11.691Z,102792.20
2018-09-26T12:52:37.650Z,102790.32
2018-09-26T12:55:03.617Z,102779.88
2018-09-26T12:57:29.587Z,102775.43
2018-09-26T12:59:55.572Z,102777.59
2018-09-26T13:02:21.668Z,102771.83
2018-09-26T13:04:47.571Z,102770.90
2018-09-26T13:07:13.523Z,102774.86
2018-09-26T13:09:39.471Z,102769.58
2018-09-26T13:12:05.452Z,102768.70
2018-09-26T13:14:31.379Z,102772.95
2018-09-26T13:16:57.579Z,102771.27
2018-09-26T13:19:23.727Z,102764.37
2018-09-26T13:21:49.672Z,102762.56
2018-09-26T13:24:15.755Z,102750.80
2018-09-26T13:26:41.648Z,102746.92
2018-09-26T13:29:07.620Z,102746.53
2018-09-26T13:31:33.611Z,102748.23
2018-09-26T13:33:59.672Z,102742.69
2018-09-26T13:36:25.710Z,102736.83
2018-09-26T13:38:51.706Z,102737.28
2018-09-26T13:41:17.719Z,102733.71
2018-09-26T13:43:43.808Z,102737.20
2018-09-26T13:46:09.858Z,102737.20
2018-09-26T13:48:35.747Z,102727.47
2018-09-26T13:51:01.957Z,102724.07
2018-09-26T13:53:27.886Z,102723.14
2018-09-26T13:55:53.845Z,102718.61
2018-09-26T13:58:19.886Z,102720.41
2018-09-26T14:00:45.850Z,102718.88
2018-09-26T14:03:11.807Z,102714.53
2018-09-26T14:05:37.759Z,102710.12
2018-09-26T14:08:04.032Z,102712.77
2018-09-26T14:10:30.126Z,102709.52
2018-09-26T14:12:56.068Z,102702.08
2018-09-26T14:15:22.040Z,102698.68
2018-09-26T14:17:48.051Z,102701.71
2018-09-26T14:20:14.030Z,102694.63
2018-09-26T14:22:40.047Z,102693.30
2018-09-26T14:25:06.057Z,102689.34
2018-09-26T14:27:32.125Z,102689.25
2018-09-26T14:29:58.096Z,102684.81
2018-09-26T14:32:24.268Z,102682.53
2018-09-26T14:34:50.067Z,102676.49
2018-09-26T14:37:16.011Z,102676.49
2018-09-26T14:39:42.070Z,102667.16
2018-09-26T14:42:07.983Z,102670.45
2018-09-26T14:44:33.935Z,102666.89
2018-09-26T14:46:59.915Z,102668.21
2018-09-26T14:49:25.931Z,102665.56
2018-09-26T14:51:51.856Z,102658.12
2018-09-26T14:54:17.827Z,102655.00
2018-09-26T14:56:43.757Z,102658.57
2018-09-26T14:59:09.712Z,102649.45
2018-09-26T15:01:35.692Z,102652.92
2018-09-26T15:04:01.685Z,102649.45
2018-09-26T15:06:27.578Z,102644.16
2018-09-26T15:08:53.745Z,102646.32
2018-09-26T15:11:19.718Z,102638.88
2018-09-26T15:13:45.683Z,102640.25
2018-09-26T15:16:11.715Z,102634.48
2018-09-26T15:18:37.620Z,102636.29
2018-09-26T15:21:03.573Z,102632.75
2018-09-26T15:23:29.527Z,102633.11
2018-09-26T15:25:55.542Z,102636.50
2018-09-26T15:28:21.495Z,102639.41
2018-09-26T15:30:47.448Z,102635.93
2018-09-26T15:33:13.464Z,102637.61
2018-09-26T15:35:39.401Z,102638.57
2018-09-26T15:38:05.397Z,102636.86
2018-09-26T15:40:31.445Z,102630.37
2018-09-26T15:42:57.367Z,102631.70
2018-09-26T15:45:23.329Z,102630.47
2018-09-26T15:47:49.279Z,102634.48
2018-09-26T15:50:15.445Z,102632.75
2018-09-26T15:52:41.315Z,102634.43
2018-09-26T15:55:07.278Z,102638.03
2018-09-26T15:57:33.227Z,102639.36
2018-09-26T15:59:59.173Z,102640.67
2018-09-26T16:02:25.208Z,102631.78
2018-09-26T16:04:51.098Z,102630.11
2018-09-26T16:07:17.059Z,102628.78
2018-09-26T16:09:43.008Z,102624.83
2018-09-26T16:12:09.024Z,102624.22
2018-09-26T16:14:34.980Z,102625.55
2018-09-26T16:17:01.022Z,102625.45
2018-09-26T16:19:27.092Z,102629.80
2018-09-26T16:21:53.026Z,102616.59
2018-09-26T16:24:19.082Z,102618.84
2018-09-26T16:26:44.961Z,102619.42
2018-09-26T16:29:10.923Z,102612.33
2018-09-26T16:31:36.867Z,102611.97
2018-09-26T16:34:02.799Z,102615.94
2018-09-26T16:36:28.845Z,102616.77
2018-09-26T16:38:54.823Z,102617.26
2018-09-26T16:41:20.790Z,102617.31
2018-09-26T16:43:46.760Z,102623.92
2018-09-26T16:46:12.757Z,102613.66
2018-09-26T16:48:38.724Z,102616.20
2018-09-26T16:51:04.688Z,102611.49
2018-09-26T16:53:30.758Z,102615.45
2018-09-26T16:55:56.704Z,102624.34
2018-09-26T16:58:22.723Z,102623.37
2018-09-26T17:00:48.615Z,102610.56
2018-09-26T17:03:14.592Z,102610.44
2018-09-26T17:05:40.553Z,102611.76
2018-09-26T17:08:06.572Z,102608.27
2018-09-26T17:10:32.488Z,102609.23
2018-09-26T17:12:58.464Z,102611.01
2018-09-26T17:15:25.542Z,102610.65
2018-09-26T17:17:51.556Z,102611.49
2018-09-26T17:20:17.543Z,102621.70
2018-09-26T17:22:43.488Z,102625.66
2018-09-26T17:25:09.529Z,102622.06
2018-09-26T17:27:35.481Z,102625.23
2018-09-26T17:30:01.432Z,102627.25
2018-09-26T17:32:27.385Z,102628.09
2018-09-26T17:34:53.467Z,102626.68
2018-09-26T17:37:19.415Z,102625.36
2018-09-26T17:39:45.341Z,102631.22
2018-09-26T17:42:11.314Z,102628.19
2018-09-26T17:44:37.252Z,102625.36
2018-09-26T17:47:03.216Z,102621.75
2018-09-26T17:49:29.177Z,102629.47
2018-09-26T17:51:55.231Z,102628.89
2018-09-26T17:54:21.225Z,102630.34
2018-09-26T17:56:47.163Z,102638.66
2018-09-26T17:59:13.124Z,102634.22
2018-09-26T18:01:39.072Z,102632.89
2018-09-26T18:04:05.069Z,102637.34
2018-09-26T18:06:31.031Z,102637.73
2018-09-26T18:08:57.034Z,102633.86
2018-09-26T18:11:22.956Z,102638.09
2018-09-26T18:13:48.915Z,102638.72
2018-09-26T18:16:14.904Z,102644.39
2018-09-26T18:18:40.859Z,102647.66
2018-09-26T18:21:06.816Z,102640.42
2018-09-26T18:23:32.764Z,102639.47
2018-09-26T18:25:58.727Z,102637.13
2018-09-26T18:28:24.675Z,102635.93
2018-09-26T18:30:50.652Z,102635.54
2018-09-26T18:33:16.633Z,102637.34
2018-09-26T18:35:42.589Z,102638.18
2018-09-26T18:38:08.549Z,102639.50
2018-09-26T18:40:34.582Z,102638.30
2018-09-26T18:43:00.628Z,102646.23
2018-09-26T18:45:26.703Z,102646.98
2018-09-26T18:47:52.672Z,102642.14
2018-09-26T18:50:18.618Z,102650.19
2018-09-26T18:52:44.620Z,102643.11
2018-09-26T18:55:10.564Z,102638.66
2018-09-26T18:57:36.525Z,102643.47
2018-09-26T19:00:02.485Z,102638.57
2018-09-26T19:02:28.502Z,102638.18
2018-09-26T19:04:54.566Z,102647.82
2018-09-26T19:07:20.420Z,102644.43
2018-09-26T19:09:46.363Z,102642.14
2018-09-26T19:12:12.372Z,102646.98
2018-09-26T19:14:38.293Z,102648.75
2018-09-26T19:17:04.309Z,102644.70
2018-09-26T19:19:30.256Z,102653.86
2018-09-26T19:21:56.292Z,102647.82
2018-09-26T19:24:22.252Z,102649.98
2018-09-26T19:26:48.207Z,102651.39
2018-09-26T19:29:14.156Z,102654.91
2018-09-26T19:31:40.117Z,102650.34
2018-09-26T19:34:06.081Z,102653.58
2018-09-26T19:36:32.146Z,102655.36
2018-09-26T19:38:58.139Z,102655.36
2018-09-26T19:41:24.095Z,102658.00
2018-09-26T19:43:50.136Z,102658.96
2018-09-26T19:46:16.045Z,102654.03
2018-09-26T19:48:42.008Z,102656.67
2018-09-26T19:51:08.069Z,102652.36
2018-09-26T19:53:33.963Z,102655.36
2018-09-26T19:56:00.023Z,102654.91
2018-09-26T19:58:26.059Z,102662.83
2018-09-26T20:00:51.946Z,102665.09
2018-09-26T20:03:17.898Z,102661.96
2018-09-26T20:05:43.840Z,102659.23
2018-09-26T20:08:10.460Z,102658.00
2018-09-26T20:10:36.360Z,102666.20
2018-09-26T20:13:02.362Z,102658.66
2018-09-26T20:15:28.444Z,102662.71
2018-09-26T20:17:54.393Z,102665.84
2018-09-26T20:20:20.347Z,102664.03
2018-09-26T20:22:46.319Z,102665.48
2018-09-26T20:25:12.327Z,102666.80
2018-09-26T20:27:38.559Z,102665.48
2018-09-26T20:30:04.790Z,102668.96
2018-09-26T20:32:30.771Z,102673.02
2018-09-26T20:34:56.719Z,102675.30
2018-09-26T20:37:22.753Z,102667.81
2018-09-26T20:39:48.690Z,102667.37
2018-09-26T20:42:14.640Z,102669.53
2018-09-26T20:44:40.639Z,102672.17
2018-09-26T20:47:06.595Z,102675.17
2018-09-26T20:49:32.577Z,102678.30
2018-09-26T20:51:58.603Z,102676.05
2018-09-26T20:54:24.485Z,102675.17
2018-09-26T20:56:50.435Z,102675.66
2018-09-26T20:59:16.422Z,102678.78
2018-09-26T21:01:42.380Z,102679.70
2018-09-26T21:04:08.318Z,102674.33
2018-09-26T21:06:34.290Z,102682.26
2018-09-26T21:09:00.239Z,102680.09
2018-09-26T21:11:26.209Z,102682.73
2018-09-26T21:13:52.198Z,102676.61
2018-09-26T21:16:18.248Z,102683.58
2018-09-26T21:18:44.192Z,102676.22
2018-09-26T21:21:10.163Z,102676.14
2018-09-26T21:23:36.092Z,102676.14
2018-09-26T21:26:02.068Z,102677.45
2018-09-26T21:28:28.032Z,102675.74
2018-09-26T21:30:54.015Z,102677.55
2018-09-26T21:33:19.964Z,102679.26
2018-09-26T21:35:45.921Z,102680.67
2018-09-26T21:38:11.875Z,102678.86
2018-09-26T21:40:37.831Z,102674.06
2018-09-26T21:43:03.791Z,102686.44
2018-09-26T21:45:29.747Z,102681.20
2018-09-26T21:47:55.748Z,102675.92
2018-09-26T21:50:21.707Z,102674.33
2018-09-26T21:52:47.662Z,102675.17
2018-09-26T21:55:13.604Z,102673.77
2018-09-26T21:57:39.675Z,102676.97
2018-09-26T22:00:05.759Z,102686.13
2018-09-26T22:02:31.715Z,102686.70
2018-09-26T22:04:57.674Z,102691.98
2018-09-26T22:07:23.642Z,102676.70
2018-09-26T22:09:49.591Z,102681.89
2018-09-26T22:12:15.634Z,102694.63
2018-09-26T22:14:41.635Z,102688.50
2018-09-26T22:17:07.697Z,102688.02
2018-09-26T22:19:33.641Z,102689.34
2018-09-26T22:21:59.600Z,102694.27
2018-09-26T22:24:25.545Z,102691.23
2018-09-26T22:26:51.597Z,102686.52
2018-09-26T22:29:17.577Z,102687.00
2018-09-26T22:31:43.538Z,102688.98
2018-09-26T22:34:09.496Z,102691.35
2018-09-26T22:36:35.479Z,102688.59
2018-09-26T22:39:01.418Z,102686.34
2018-09-26T22:41:27.376Z,102678.30
2018-09-26T22:43:53.325Z,102683.78
2018-09-26T22:46:19.275Z,102674.55
2018-09-26T22:48:45.225Z,102667.45
2018-09-26T22:51:11.310Z,102672.74
2018-09-26T22:53:37.262Z,102673.70
2018-09-26T22:56:03.224Z,102662.30
2018-09-26T22:58:29.178Z,102660.97
2018-09-26T23:00:55.127Z,102664.06
2018-09-26T23:03:21.073Z,102657.73
2018-09-26T23:05:47.233Z,102655.20
2018-09-26T23:08:13.278Z,102654.25
2018-09-26T23:10:39.225Z,102656.89
2018-09-26T23:13:05.163Z,102653.50
2018-09-26T23:15:31.133Z,102648.70
2018-09-26T23:17:57.069Z,102653.62
2018-09-26T23:20:23.112Z,102644.82
2018-09-26T23:22:49.065Z,102639.45
2018-09-26T23:25:15.021Z,102637.64
2018-09-26T23:27:40.969Z,102643.41
2018-09-26T23:30:06.925Z,102644.64
2018-09-26T23:32:32.872Z,102648.70
2018-09-26T23:34:58.843Z,102652.17
2018-09-26T23:37:24.807Z,102647.02
2018-09-26T23:39:50.772Z,102647.37
2018-09-26T23:42:16.764Z,102642.93
2018-09-26T23:44:42.707Z,102647.86
2018-09-26T23:47:08.753Z,102642.48
2018-09-26T23:49:34.752Z,102644.38
2018-09-26T23:52:00.696Z,102650.98
2018-09-26T23:54:26.649Z,102642.09
2018-09-26T23:56:52.591Z,102649.53
2018-09-26T23:59:18.536Z,102648.78
